createdAt,value
2022-10-09T00:00:24.101Z,6.87
2022-10-09T00:03:17.262Z,6.17
2022-10-09T00:05:46.883Z,8.00
2022-10-09T00:08:43.498Z,8.80
2022-10-09T00:11:14.943Z,8.80
2022-10-09T00:13:43.810Z,6.27
2022-10-09T00:16:13.303Z,8.77
2022-10-09T00:18:46.733Z,7.73
2022-10-09T00:21:20.545Z,10.87
2022-10-09T00:23:54.554Z,8.43
2022-10-09T00:26:24.698Z,11.87
2022-10-09T00:28:55.669Z,9.10
2022-10-09T00:31:25.883Z,10.53
2022-10-09T00:34:03.089Z,7.10
2022-10-09T00:36:53.912Z,13.37
2022-10-09T00:39:24.283Z,8.70
2022-10-09T00:42:13.283Z,9.87
2022-10-09T00:45:03.505Z,13.17
2022-10-09T00:47:33.646Z,13.10
2022-10-09T00:50:05.887Z,7.30
2022-10-09T00:53:00.533Z,7.00
2022-10-09T00:55:35.570Z,11.47
2022-10-09T00:58:26.182Z,8.10
2022-10-09T01:00:55.493Z,11.40
2022-10-09T01:03:24.205Z,7.37
2022-10-09T01:06:00.786Z,11.23
2022-10-09T01:08:33.723Z,10.33
2022-10-09T01:11:28.163Z,9.00
2022-10-09T01:14:00.093Z,9.80
2022-10-09T01:16:31.890Z,7.67
2022-10-09T01:19:29.675Z,8.63
2022-10-09T01:22:05.904Z,11.83
2022-10-09T01:24:37.706Z,10.90
2022-10-09T01:27:13.192Z,9.03
2022-10-09T01:29:44.779Z,4.30
2022-10-09T01:32:16.963Z,11.33
2022-10-09T01:34:46.042Z,9.17
2022-10-09T01:37:19.648Z,6.93
2022-10-09T01:40:10.784Z,6.80
2022-10-09T01:42:40.683Z,8.60
2022-10-09T01:45:16.883Z,9.40
2022-10-09T01:47:49.374Z,8.93
2022-10-09T01:50:20.001Z,9.67
2022-10-09T01:52:51.867Z,8.93
2022-10-09T01:55:28.678Z,9.40
2022-10-09T01:58:33.391Z,5.77
2022-10-09T02:01:07.235Z,8.43
2022-10-09T02:03:38.112Z,7.23
2022-10-09T02:06:08.720Z,7.77
2022-10-09T02:08:49.048Z,8.70
2022-10-09T02:11:26.232Z,5.20
2022-10-09T02:14:02.199Z,6.77
2022-10-09T02:16:44.596Z,6.03
2022-10-09T02:19:16.607Z,6.27
2022-10-09T02:21:53.666Z,7.27
2022-10-09T02:24:26.623Z,7.30
2022-10-09T02:26:57.874Z,7.37
2022-10-09T02:29:27.992Z,9.43
2022-10-09T02:31:56.615Z,8.93
2022-10-09T02:34:25.320Z,10.07
2022-10-09T02:36:53.686Z,6.20
2022-10-09T02:39:22.442Z,10.83
2022-10-09T02:41:50.763Z,12.97
2022-10-09T02:44:19.684Z,7.90
2022-10-09T02:46:51.903Z,6.90
2022-10-09T02:49:20.639Z,8.57
2022-10-09T02:51:49.029Z,7.60
2022-10-09T02:54:17.836Z,11.23
2022-10-09T02:56:46.173Z,6.70
2022-10-09T02:59:18.149Z,8.03
2022-10-09T03:02:08.560Z,5.43
2022-10-09T03:04:38.800Z,10.80
2022-10-09T03:07:07.026Z,6.30
2022-10-09T03:09:35.573Z,12.37
2022-10-09T03:12:04.615Z,7.43
2022-10-09T03:14:53.853Z,10.47
2022-10-09T03:17:43.466Z,6.03
2022-10-09T03:20:13.275Z,7.57
2022-10-09T03:22:44.485Z,4.93
2022-10-09T03:25:15.282Z,7.57
2022-10-09T03:27:48.657Z,9.83
2022-10-09T03:30:18.303Z,11.03
2022-10-09T03:32:48.686Z,11.53
2022-10-09T03:35:17.196Z,9.17
2022-10-09T03:37:46.824Z,9.00
2022-10-09T03:40:23.964Z,7.77
2022-10-09T03:42:57.689Z,7.20
2022-10-09T03:45:45.940Z,6.70
2022-10-09T03:48:18.204Z,9.27
2022-10-09T03:51:07.123Z,8.37
2022-10-09T03:53:35.796Z,10.93
2022-10-09T03:56:04.567Z,11.83
2022-10-09T03:58:32.897Z,7.27
2022-10-09T04:01:01.202Z,6.67
2022-10-09T04:03:31.167Z,8.37
2022-10-09T04:06:00.004Z,8.27
2022-10-09T04:08:48.574Z,6.13
2022-10-09T04:11:16.941Z,6.70
2022-10-09T04:13:47.565Z,7.87
2022-10-09T04:16:16.133Z,8.27
2022-10-09T04:18:48.290Z,8.93
2022-10-09T04:21:18.778Z,6.67
2022-10-09T04:23:47.036Z,9.53
2022-10-09T04:26:15.513Z,12.27
2022-10-09T04:28:44.010Z,7.20
2022-10-09T04:31:12.709Z,10.50
2022-10-09T04:33:43.071Z,8.97
2022-10-09T04:36:15.086Z,10.80
2022-10-09T04:38:43.477Z,9.47
2022-10-09T04:41:12.150Z,9.47
2022-10-09T04:43:41.261Z,9.67
2022-10-09T04:46:12.949Z,8.13
2022-10-09T04:48:41.970Z,10.77
2022-10-09T04:51:11.448Z,13.90
2022-10-09T04:53:41.644Z,10.53
2022-10-09T04:56:12.492Z,8.93
2022-10-09T04:58:41.144Z,14.77
2022-10-09T05:01:12.376Z,11.87
2022-10-09T05:03:42.620Z,12.87
2022-10-09T05:06:12.208Z,10.43
2022-10-09T05:08:42.354Z,12.03
2022-10-09T05:11:11.975Z,13.30
2022-10-09T05:13:43.066Z,9.30
2022-10-09T05:16:15.656Z,10.47
2022-10-09T05:18:45.531Z,9.27
2022-10-09T05:21:14.026Z,8.67
2022-10-09T05:23:43.945Z,14.07
2022-10-09T05:26:15.441Z,8.20
2022-10-09T05:28:45.995Z,12.57
2022-10-09T05:31:20.676Z,9.73
2022-10-09T05:33:50.704Z,12.70
2022-10-09T05:36:19.049Z,6.13
2022-10-09T05:38:51.560Z,12.90
2022-10-09T05:41:20.499Z,12.30
2022-10-09T05:43:52.379Z,13.80
2022-10-09T05:46:24.304Z,12.17
2022-10-09T05:48:54.074Z,16.63
2022-10-09T05:51:23.596Z,10.80
2022-10-09T05:53:58.505Z,13.90
2022-10-09T05:56:28.032Z,12.70
2022-10-09T05:58:56.933Z,9.60
2022-10-09T06:01:26.482Z,17.67
2022-10-09T06:03:56.215Z,12.77
2022-10-09T06:06:25.595Z,9.17
2022-10-09T06:08:55.766Z,9.63
2022-10-09T06:11:35.496Z,11.17
2022-10-09T06:14:06.705Z,10.27
2022-10-09T06:16:38.992Z,11.67
2022-10-09T06:19:15.383Z,9.73
2022-10-09T06:21:43.767Z,8.27
2022-10-09T06:24:18.265Z,11.53
2022-10-09T06:26:48.816Z,8.53
2022-10-09T06:29:20.841Z,11.23
2022-10-09T06:31:49.027Z,12.17
2022-10-09T06:34:17.248Z,11.60
2022-10-09T06:36:45.529Z,12.30
2022-10-09T06:39:15.182Z,6.53
2022-10-09T06:41:43.521Z,9.70
2022-10-09T06:44:16.414Z,12.67
2022-10-09T06:46:46.376Z,13.67
2022-10-09T06:49:14.587Z,16.43
2022-10-09T06:51:42.840Z,19.07
2022-10-09T06:54:12.981Z,14.13
2022-10-09T06:56:42.696Z,12.30
2022-10-09T06:59:12.324Z,10.43
2022-10-09T07:01:40.749Z,8.20
2022-10-09T07:04:11.296Z,12.00
2022-10-09T07:06:40.779Z,12.70
2022-10-09T07:09:10.112Z,12.67
2022-10-09T07:11:39.300Z,11.17
2022-10-09T07:14:09.815Z,11.40
2022-10-09T07:16:38.804Z,10.63
2022-10-09T07:19:08.454Z,10.07
2022-10-09T07:21:36.772Z,12.70
2022-10-09T07:24:05.736Z,12.80
2022-10-09T07:26:35.211Z,9.90
2022-10-09T07:29:03.941Z,12.27
2022-10-09T07:31:33.646Z,11.10
2022-10-09T07:34:01.990Z,12.23
2022-10-09T07:36:30.259Z,12.27
2022-10-09T07:38:59.399Z,12.50
2022-10-09T07:41:28.689Z,13.03
2022-10-09T07:43:57.157Z,15.73
2022-10-09T07:46:30.866Z,12.67
2022-10-09T07:49:04.401Z,12.03
2022-10-09T07:51:33.187Z,10.60
2022-10-09T07:54:02.278Z,11.90
2022-10-09T07:56:31.608Z,9.87
2022-10-09T07:59:00.846Z,14.87
2022-10-09T08:01:30.326Z,9.50
2022-10-09T08:03:58.998Z,10.03
2022-10-09T08:06:29.042Z,9.13
2022-10-09T08:08:58.291Z,10.10
2022-10-09T08:11:27.160Z,10.83
2022-10-09T08:13:55.576Z,10.63
2022-10-09T08:16:24.941Z,16.10
2022-10-09T08:18:56.086Z,10.83
2022-10-09T08:21:24.561Z,11.47
2022-10-09T08:23:55.832Z,17.50
2022-10-09T08:26:24.720Z,15.27
2022-10-09T08:28:53.796Z,14.83
2022-10-09T08:31:22.514Z,8.13
2022-10-09T08:33:53.816Z,12.87
2022-10-09T08:36:22.213Z,12.97
2022-10-09T08:38:50.449Z,11.87
2022-10-09T08:41:25.247Z,9.77
2022-10-09T08:43:57.415Z,11.07
2022-10-09T08:46:27.579Z,12.83
2022-10-09T08:48:56.716Z,11.17
2022-10-09T08:51:26.415Z,17.80
2022-10-09T08:53:58.110Z,7.73
2022-10-09T08:56:28.518Z,10.03
2022-10-09T08:58:57.252Z,8.77
2022-10-09T09:01:32.210Z,11.83
2022-10-09T09:04:17.858Z,13.60
2022-10-09T09:06:49.489Z,12.57
2022-10-09T09:09:21.083Z,14.60
2022-10-09T09:11:52.679Z,8.83
2022-10-09T09:14:29.527Z,9.20
2022-10-09T09:17:00.792Z,10.40
2022-10-09T09:19:37.231Z,6.70
2022-10-09T09:22:06.126Z,8.97
2022-10-09T09:24:37.972Z,9.43
2022-10-09T09:27:12.958Z,6.60
2022-10-09T09:29:43.690Z,8.73
2022-10-09T09:32:22.265Z,10.90
2022-10-09T09:34:50.790Z,10.40
2022-10-09T09:37:19.260Z,9.23
2022-10-09T09:42:37.133Z,9.23
2022-10-09T09:45:06.773Z,11.93
2022-10-09T09:47:36.390Z,7.07
2022-10-09T09:50:06.144Z,7.27
2022-10-09T09:52:37.064Z,11.20
2022-10-09T09:55:06.286Z,6.17
2022-10-09T09:57:36.224Z,9.30
2022-10-09T10:00:10.674Z,8.13
2022-10-09T10:02:38.969Z,8.50
2022-10-09T10:05:17.469Z,7.10
2022-10-09T10:07:49.876Z,8.10
2022-10-09T10:10:24.201Z,7.57
2022-10-09T10:12:55.949Z,6.50
2022-10-09T10:15:27.652Z,5.00
2022-10-09T10:18:02.942Z,5.33
2022-10-09T10:20:32.343Z,5.60
2022-10-09T10:23:01.098Z,6.50
2022-10-09T10:25:32.023Z,6.87
2022-10-09T10:28:03.658Z,5.87
2022-10-09T10:30:33.892Z,7.47
2022-10-09T10:33:04.374Z,6.83
2022-10-09T10:35:34.595Z,9.37
2022-10-09T10:38:06.491Z,7.60
2022-10-09T10:40:36.524Z,5.43
2022-10-09T10:43:09.627Z,8.40
2022-10-09T10:45:46.275Z,5.70
2022-10-09T10:48:17.416Z,6.63
2022-10-09T10:50:48.633Z,6.90
2022-10-09T10:53:21.688Z,10.67
2022-10-09T10:55:54.070Z,4.40
2022-10-09T10:58:30.578Z,5.37
2022-10-09T11:01:13.781Z,5.60
2022-10-09T11:03:59.577Z,8.50
2022-10-09T11:06:31.263Z,8.60
2022-10-09T11:09:04.016Z,6.97
2022-10-09T11:11:37.994Z,7.57
2022-10-09T11:14:11.641Z,5.50
2022-10-09T11:16:51.997Z,10.53
2022-10-09T11:19:31.305Z,6.97
2022-10-09T11:22:04.381Z,7.27
2022-10-09T11:24:46.780Z,6.10
2022-10-09T11:27:18.099Z,7.03
2022-10-09T11:29:49.020Z,6.03
2022-10-09T11:32:21.093Z,9.27
2022-10-09T11:34:52.545Z,5.33
2022-10-09T11:37:22.784Z,5.73
2022-10-09T11:39:50.991Z,9.75
2022-10-09T11:42:22.092Z,9.23
2022-10-09T11:44:55.330Z,5.77
2022-10-09T11:47:29.027Z,6.10
2022-10-09T11:50:08.672Z,5.85
2022-10-09T11:52:42.991Z,3.95
2022-10-09T11:55:18.734Z,11.03
2022-10-09T11:57:47.387Z,5.33
2022-10-09T12:00:16.498Z,12.70
2022-10-09T12:02:46.191Z,8.57
2022-10-09T12:05:18.785Z,6.03
2022-10-09T12:07:47.642Z,3.83
2022-10-09T12:10:24.991Z,6.40
2022-10-09T12:12:57.622Z,5.77
2022-10-09T12:15:27.441Z,5.32
2022-10-09T12:17:57.157Z,6.15
2022-10-09T12:20:28.976Z,4.80
2022-10-09T12:23:25.330Z,6.67
2022-10-09T12:25:47.683Z,7.85
2022-10-09T12:28:20.144Z,3.08
2022-10-09T12:30:49.405Z,4.72
2022-10-09T12:33:23.068Z,5.30
2022-10-09T12:36:00.568Z,7.55
2022-10-09T12:38:29.764Z,5.32
2022-10-09T12:41:00.971Z,6.35
2022-10-09T12:43:29.495Z,6.78
2022-10-09T12:45:58.080Z,7.37
2022-10-09T12:48:28.982Z,4.97
2022-10-09T12:50:57.582Z,7.93
2022-10-09T12:53:27.072Z,5.93
2022-10-09T12:55:59.353Z,10.63
2022-10-09T12:58:28.362Z,7.68
2022-10-09T13:00:58.429Z,9.13
2022-10-09T13:03:35.171Z,3.20
2022-10-09T13:06:03.922Z,6.78
2022-10-09T13:08:33.656Z,5.10
2022-10-09T13:11:09.980Z,9.05
2022-10-09T13:13:38.375Z,7.20
2022-10-09T13:16:09.218Z,4.88
2022-10-09T13:18:39.580Z,6.68
2022-10-09T13:21:24.552Z,4.40
2022-10-09T13:23:52.885Z,6.88
2022-10-09T13:26:26.501Z,3.33
2022-10-09T13:28:55.685Z,4.95
2022-10-09T13:31:24.117Z,3.60
2022-10-09T13:33:53.916Z,4.75
2022-10-09T13:36:22.488Z,3.42
2022-10-09T13:38:51.175Z,3.58
2022-10-09T13:41:22.655Z,4.78
2022-10-09T13:43:51.697Z,4.88
2022-10-09T13:46:19.997Z,6.90
2022-10-09T13:48:48.313Z,3.38
2022-10-09T13:51:18.035Z,5.20
2022-10-09T13:53:46.276Z,4.50
2022-10-09T13:56:15.277Z,5.55
2022-10-09T13:58:43.547Z,6.63
2022-10-09T14:01:11.900Z,5.45
2022-10-09T14:03:40.479Z,5.78
2022-10-09T14:06:09.129Z,6.10
2022-10-09T14:08:38.811Z,4.15
2022-10-09T14:11:07.227Z,5.60
2022-10-09T14:13:35.885Z,7.28
2022-10-09T14:16:06.303Z,4.13
2022-10-09T14:18:34.687Z,4.22
2022-10-09T14:21:12.525Z,7.65
2022-10-09T14:23:44.851Z,8.55
2022-10-09T14:26:13.201Z,7.60
2022-10-09T14:28:41.817Z,5.97
2022-10-09T14:31:10.189Z,6.30
2022-10-09T14:33:38.448Z,6.20
2022-10-09T14:36:07.972Z,5.43
2022-10-09T14:38:38.126Z,6.70
2022-10-09T14:41:09.154Z,4.95
2022-10-09T14:43:37.457Z,7.32
2022-10-09T14:46:06.994Z,6.78
2022-10-09T14:48:35.492Z,4.53
2022-10-09T14:51:04.469Z,6.80
2022-10-09T14:53:33.151Z,6.97
2022-10-09T14:56:02.320Z,5.22
2022-10-09T14:58:32.665Z,5.40
2022-10-09T15:01:01.181Z,7.25
2022-10-09T15:03:30.066Z,6.95
2022-10-09T15:05:59.138Z,6.57
2022-10-09T15:08:27.943Z,3.50
2022-10-09T15:10:56.329Z,10.07
2022-10-09T15:13:24.600Z,7.57
2022-10-09T15:15:54.301Z,6.45
2022-10-09T15:18:22.524Z,5.15
2022-10-09T15:20:50.837Z,4.18
2022-10-09T15:23:19.114Z,5.78
2022-10-09T15:25:49.620Z,5.65
2022-10-09T15:28:18.979Z,7.22
2022-10-09T15:30:47.808Z,8.75
2022-10-09T15:33:17.593Z,9.20
2022-10-09T15:35:45.832Z,6.90
2022-10-09T15:38:15.021Z,6.65
2022-10-09T15:40:44.929Z,6.22
2022-10-09T15:43:13.306Z,8.35
2022-10-09T15:45:41.676Z,6.25
2022-10-09T15:48:10.239Z,7.07
2022-10-09T15:50:39.929Z,4.15
2022-10-09T15:53:14.351Z,6.03
2022-10-09T15:55:43.036Z,8.20
2022-10-09T15:58:11.408Z,5.68
2022-10-09T16:00:40.174Z,4.93
2022-10-09T16:03:09.318Z,4.78
2022-10-09T16:05:43.287Z,5.68
2022-10-09T16:08:12.199Z,6.25
2022-10-09T16:10:46.433Z,5.20
2022-10-09T16:13:17.323Z,6.47
2022-10-09T16:15:47.242Z,6.78
2022-10-09T16:18:16.164Z,5.70
2022-10-09T16:20:46.082Z,6.40
2022-10-09T16:23:14.793Z,5.50
2022-10-09T16:25:43.629Z,4.72
2022-10-09T16:28:12.956Z,6.10
2022-10-09T16:30:41.575Z,3.80
2022-10-09T16:33:12.712Z,11.23
2022-10-09T16:35:41.336Z,6.13
2022-10-09T16:38:10.950Z,4.50
2022-10-09T16:43:34.786Z,7.05
2022-10-09T16:46:18.710Z,5.25
2022-10-09T16:48:47.308Z,5.53
2022-10-09T16:51:16.265Z,7.78
2022-10-09T16:53:45.933Z,10.07
2022-10-09T16:56:14.800Z,6.32
2022-10-09T16:58:43.507Z,9.38
2022-10-09T17:01:12.527Z,8.60
2022-10-09T17:03:41.360Z,6.38
2022-10-09T17:06:10.529Z,6.63
2022-10-09T17:08:39.155Z,7.35
2022-10-09T17:11:09.562Z,7.07
2022-10-09T17:13:38.206Z,5.43
2022-10-09T17:16:07.806Z,4.10
2022-10-09T17:18:36.549Z,4.80
2022-10-09T17:21:05.072Z,5.67
2022-10-09T17:23:33.296Z,3.60
2022-10-09T17:26:01.782Z,4.87
2022-10-09T17:28:32.037Z,7.27
2022-10-09T17:31:03.067Z,8.27
2022-10-09T17:33:31.503Z,7.35
2022-10-09T17:36:00.110Z,8.77
2022-10-09T17:38:28.373Z,8.40
2022-10-09T17:40:56.629Z,7.23
2022-10-09T17:43:24.962Z,10.10
2022-10-09T17:45:54.578Z,7.77
2022-10-09T17:48:22.859Z,9.53
2022-10-09T17:50:52.345Z,4.13
2022-10-09T17:53:22.550Z,5.60
2022-10-09T17:55:51.898Z,9.20
2022-10-09T17:58:20.557Z,7.83
2022-10-09T18:00:48.820Z,5.57
2022-10-09T18:03:18.744Z,10.77
2022-10-09T18:05:47.869Z,8.33
2022-10-09T18:08:17.211Z,6.57
2022-10-09T18:10:46.903Z,7.43
2022-10-09T18:13:15.602Z,10.47
2022-10-09T18:15:45.740Z,7.67
2022-10-09T18:18:14.228Z,10.27
2022-10-09T18:20:44.131Z,5.60
2022-10-09T18:23:13.272Z,6.40
2022-10-09T18:25:42.429Z,6.00
2022-10-09T18:28:11.881Z,4.97
2022-10-09T18:30:43.018Z,7.33
2022-10-09T18:33:11.474Z,9.90
2022-10-09T18:35:40.738Z,10.40
2022-10-09T18:38:11.549Z,7.70
2022-10-09T18:40:45.159Z,8.40
2022-10-09T18:43:14.396Z,5.40
2022-10-09T18:45:46.751Z,7.13
2022-10-09T18:48:15.812Z,5.77
2022-10-09T18:50:45.212Z,9.50
2022-10-09T18:53:15.285Z,6.90
2022-10-09T18:55:44.863Z,5.83
2022-10-09T18:58:14.451Z,6.70
2022-10-09T19:00:43.284Z,8.73
2022-10-09T19:03:11.845Z,8.83
2022-10-09T19:05:40.313Z,8.30
2022-10-09T19:08:08.885Z,4.90
2022-10-09T19:10:40.968Z,8.23
2022-10-09T19:13:09.294Z,6.50
2022-10-09T19:15:37.700Z,7.07
2022-10-09T19:18:06.493Z,8.67
2022-10-09T19:20:35.018Z,26.27
2022-10-09T19:23:03.555Z,53.30
2022-10-09T19:25:31.961Z,64.70
2022-10-09T19:28:02.687Z,50.30
2022-10-09T19:30:31.138Z,35.00
2022-10-09T19:32:59.636Z,24.97
2022-10-09T19:35:28.194Z,18.53
2022-10-09T19:37:56.699Z,18.53
2022-10-09T19:40:25.069Z,12.67
2022-10-09T19:42:53.370Z,12.87
2022-10-09T19:45:23.144Z,9.07
2022-10-09T19:47:54.213Z,14.30
2022-10-09T19:50:23.750Z,8.80
2022-10-09T19:52:52.259Z,9.47
2022-10-09T19:55:20.593Z,12.03
2022-10-09T19:57:49.239Z,9.80
2022-10-09T20:00:37.802Z,8.80
2022-10-09T20:03:07.447Z,9.90
2022-10-09T20:05:36.929Z,8.93
2022-10-09T20:08:05.322Z,7.30
2022-10-09T20:10:33.646Z,9.43
2022-10-09T20:13:02.829Z,9.50
2022-10-09T20:15:34.053Z,11.70
2022-10-09T20:18:02.469Z,6.50
2022-10-09T20:20:32.164Z,6.70
2022-10-09T20:23:00.695Z,8.53
2022-10-09T20:25:29.207Z,9.87
2022-10-09T20:27:59.039Z,7.37
2022-10-09T20:30:28.106Z,16.67
2022-10-09T20:32:59.486Z,17.20
2022-10-09T20:35:29.511Z,12.90
2022-10-09T20:38:04.563Z,12.57
2022-10-09T20:40:34.448Z,10.23
2022-10-09T20:43:03.415Z,8.97
2022-10-09T20:45:59.466Z,6.87
2022-10-09T20:48:28.269Z,9.93
2022-10-09T20:50:58.006Z,12.77
2022-10-09T20:53:29.256Z,21.77
2022-10-09T20:56:00.900Z,14.10
2022-10-09T20:58:29.422Z,12.17
2022-10-09T21:00:57.729Z,11.93
2022-10-09T21:03:26.475Z,9.50
2022-10-09T21:05:55.810Z,11.57
2022-10-09T21:08:25.573Z,18.13
2022-10-09T21:10:58.130Z,25.27
2022-10-09T21:13:30.555Z,18.63
2022-10-09T21:15:59.968Z,13.97
2022-10-09T21:18:28.409Z,11.20
2022-10-09T21:20:59.257Z,11.10
2022-10-09T21:23:28.157Z,12.40
2022-10-09T21:25:58.035Z,9.77
2022-10-09T21:28:26.374Z,9.53
2022-10-09T21:30:54.992Z,17.33
2022-10-09T21:33:23.884Z,19.27
2022-10-09T21:35:55.500Z,17.97
2022-10-09T21:38:24.583Z,14.97
2022-10-09T21:40:55.155Z,15.10
2022-10-09T21:43:28.174Z,12.37
2022-10-09T21:45:56.568Z,11.60
2022-10-09T21:48:24.909Z,11.37
2022-10-09T21:50:53.300Z,12.03
2022-10-09T21:53:21.690Z,15.77
2022-10-09T21:55:51.687Z,18.07
2022-10-09T21:58:40.527Z,14.47
2022-10-09T22:01:13.339Z,11.93
2022-10-09T22:03:41.977Z,8.93
2022-10-09T22:06:16.352Z,7.73
2022-10-09T22:08:47.788Z,7.30
2022-10-09T22:11:16.408Z,10.23
2022-10-09T22:13:47.174Z,8.50
2022-10-09T22:16:18.101Z,7.60
2022-10-09T22:18:46.473Z,9.20
2022-10-09T22:21:16.746Z,7.80
2022-10-09T22:23:45.128Z,7.07
2022-10-09T22:26:14.560Z,7.97
2022-10-09T22:28:44.193Z,10.77
2022-10-09T22:31:14.092Z,8.30
2022-10-09T22:33:44.288Z,7.40
2022-10-09T22:36:14.105Z,10.00
2022-10-09T22:38:45.984Z,8.30
2022-10-09T22:41:15.336Z,8.17
2022-10-09T22:43:45.163Z,7.23
2022-10-09T22:46:14.822Z,5.83
2022-10-09T22:48:44.846Z,10.20
2022-10-09T22:51:15.072Z,6.93
2022-10-09T22:53:43.941Z,5.80
2022-10-09T22:56:15.681Z,5.70
2022-10-09T22:58:44.511Z,6.77
2022-10-09T23:01:19.679Z,6.47
2022-10-09T23:03:50.486Z,5.80
2022-10-09T23:06:23.552Z,7.23
2022-10-09T23:08:52.243Z,7.43
2022-10-09T23:11:24.590Z,7.27
2022-10-09T23:14:14.582Z,6.33
2022-10-09T23:16:45.742Z,10.73
2022-10-09T23:19:19.083Z,7.73
2022-10-09T23:21:47.970Z,5.43
2022-10-09T23:24:18.056Z,8.70
2022-10-09T23:26:49.573Z,8.27
2022-10-09T23:29:21.579Z,7.43
2022-10-09T23:31:53.359Z,10.00
2022-10-09T23:34:24.096Z,6.03
2022-10-09T23:36:52.593Z,6.63
2022-10-09T23:39:22.513Z,4.50
2022-10-09T23:41:51.815Z,9.33
2022-10-09T23:44:22.171Z,5.63
2022-10-09T23:46:52.168Z,10.43
2022-10-09T23:49:23.041Z,8.23
2022-10-09T23:52:01.078Z,8.37
2022-10-09T23:54:29.644Z,8.00
2022-10-09T23:56:57.905Z,10.50
2022-10-09T23:59:26.311Z,8.73
